Airfield :
LOGIN :

Register | Disclaimer

   EN    FR    IT 

 










Legend :    VFR   Marginal VFR   IFR   Intensive IFR   Very Intensive IFR
Visi :
Ceiling :
>= 8 km
>= 3000ft
5 to 8 km
1000 to 3000 ft
1500m to 5 km
500 to 1000 ft
800 to 1500m
200 to 500 ft
< 800m
< 200 ft
Symbols :   Thunderstorms  Fog  Heavy snow  Heavy precipitations  Wind > 20 kt
SIGMETs :     Misc.  Thunderstorms  Icing  Turbulence  Mountain Waves  Volcanic Ashes






- Airport Elevation : 1249 ft


ETSN - Neuburg AB

CURRENT METAR :
  • 250320Z 16004KT 9999 FEW015 BKN060 10/10 Q1018 BLU

EXPIRED METARs :
  • 250220Z VRB01KT 9999 BKN060 11/10 Q1018 BLU
  • 250120Z 19003KT 9999 FEW020 BKN060 12/11 Q1018 BLU
  • 250020Z 23002KT 9999 -RA SCT020 BKN060 12/11 Q1018 RESHRA BLU
  • 242320Z 18006KT 9000 SHRA FEW030CB BKN060 12/11 Q1018 RETS BLU

TAF TAF ETSN
Valid from the 25 at 02:00 until the 25 at 11:00 UTC


250158Z 2502/2511 20003KT 9999 NSW SCT030 SCT100
TEMPO 2504/2506 17002KT 0500 FG VV001



MET'MAP, your aeronautical weather chart ! - Copyright ORBIFLY December 2007 - Disclaimer

ORBIFLY MET'MAP TEAM :

Programming & Development : Alexandra Zaïnal
Original concept : Baudouin d'Aumeries
Technical & hardware support : Manuel Goepfert
Assistance : Marc-Olivier Méhu




SOURCES & CREDITS :

   NOAA